Time;durP1;ratioP1;P1;durP2;ratioP2;P2;SDS_P1;SDS_P2;PMS_P1;PMS_P2;Temp;Humidity;BMP_temperature;BMP_pressure;BME280_temperature;BME280_humidity;BME280_pressure;Samples;Min_cycle;Max_cycle;Signal;HPM_P1;HPM_P2
2023/09/01 00:02:30;;;;;;;6.63;1.98;;;;;;;17.86;66.31;100057.53;10283409;28;20047;-71
2023/09/01 00:07:32;;;;;;;5.80;1.80;;;;;;;17.75;66.83;100062.66;10285369;28;20539;-71
2023/09/01 00:12:33;;;;;;;6.18;2.78;;;;;;;17.73;67.01;100077.53;10286160;28;20042;-72
2023/09/01 00:17:35;;;;;;;9.07;2.05;;;;;;;17.68;67.16;100067.34;10286888;28;20106;-71
2023/09/01 00:22:36;;;;;;;6.22;2.53;;;;;;;17.74;67.19;100071.88;10283525;28;20062;-74
2023/09/01 00:27:38;;;;;;;5.18;2.38;;;;;;;17.83;67.01;100059.66;10285493;28;20075;-71
2023/09/01 00:32:39;;;;;;;8.23;2.17;;;;;;;17.93;66.83;100048.22;10284413;28;20047;-70
2023/09/01 00:37:40;;;;;;;8.40;2.50;;;;;;;17.98;66.83;100055.66;10294683;28;20050;-71
2023/09/01 00:42:42;;;;;;;6.05;1.98;;;;;;;17.90;67.05;100047.84;10283168;28;20280;-71
2023/09/01 00:47:44;;;;;;;5.22;1.80;;;;;;;17.76;67.59;100048.00;10287674;28;20121;-72
2023/09/01 00:52:45;;;;;;;5.25;2.17;;;;;;;17.71;67.50;100056.00;10290200;28;20239;-72
2023/09/01 00:57:46;;;;;;;3.72;1.90;;;;;;;17.51;68.26;100053.56;10287555;28;20105;-75
2023/09/01 01:02:48;;;;;;;7.03;2.25;;;;;;;17.47;68.31;100051.53;10292975;28;20047;-71
2023/09/01 01:08:15;;;;;;;3.78;2.20;;;;;;;17.43;68.68;100043.00;10287485;28;20057;-71
2023/09/01 01:13:20;;;;;;;5.13;2.40;;;;;;;17.21;69.18;100032.59;10286978;28;20063;-72
2023/09/01 01:18:23;;;;;;;5.70;2.80;;;;;;;17.19;69.48;100034.72;10285983;28;20065;-73
2023/09/01 01:23:26;;;;;;;5.30;2.28;;;;;;;17.34;69.38;100020.75;10294758;28;20313;-73
2023/09/01 01:28:28;;;;;;;4.70;2.55;;;;;;;17.42;69.14;100020.44;10282775;28;20066;-74
2023/09/01 01:33:52;;;;;;;3.20;2.38;;;;;;;17.38;69.53;100029.28;10289328;28;20110;-71
2023/09/01 01:39:06;;;;;;;6.80;2.53;;;;;;;17.32;69.75;100030.19;10285808;28;20118;-71
2023/09/01 01:44:10;;;;;;;5.50;2.13;;;;;;;17.41;69.71;100034.25;10278012;28;20062;-71
2023/09/01 01:49:11;;;;;;;6.35;2.75;;;;;;;17.45;69.44;100038.16;10286320;28;20307;-73
2023/09/01 01:54:13;;;;;;;4.47;2.25;;;;;;;17.47;69.51;100027.91;10285673;28;20055;-72
2023/09/01 01:59:14;;;;;;;6.57;2.70;;;;;;;17.64;69.28;100031.63;10284285;28;20259;-73
2023/09/01 02:04:16;;;;;;;5.15;2.60;;;;;;;17.68;69.43;100010.28;10282040;28;20126;-70
2023/09/01 02:09:17;;;;;;;5.32;2.50;;;;;;;17.67;69.73;100010.50;10281584;28;20054;-72
2023/09/01 02:14:20;;;;;;;5.60;2.30;;;;;;;17.64;69.87;100017.22;10281856;28;20039;-71
2023/09/01 02:19:21;;;;;;;3.70;1.98;;;;;;;17.47;70.40;100030.63;10284937;28;20389;-71
2023/09/01 02:24:22;;;;;;;6.72;2.25;;;;;;;17.37;70.83;100024.91;10278140;28;20079;-72
2023/09/01 02:29:24;;;;;;;4.97;2.50;;;;;;;17.39;71.06;100018.16;10276280;28;20051;-72
2023/09/01 02:34:26;;;;;;;6.50;2.78;;;;;;;17.42;71.03;100022.34;10284781;28;20347;-72
2023/09/01 02:39:28;;;;;;;4.95;2.83;;;;;;;17.41;71.29;100013.34;10278702;28;20078;-73
2023/09/01 02:44:32;;;;;;;4.80;2.20;;;;;;;17.40;71.79;100014.41;10302966;28;20106;-69
2023/09/01 02:49:33;;;;;;;5.65;2.42;;;;;;;17.38;71.66;100008.38;10284408;28;20058;-72
2023/09/01 02:54:35;;;;;;;5.22;1.48;;;;;;;17.24;72.43;100012.34;10281051;28;20038;-69
2023/09/01 02:59:37;;;;;;;3.25;1.75;;;;;;;17.10;73.19;100008.94;10273452;28;20127;-70
2023/09/01 03:04:38;;;;;;;5.65;1.35;;;;;;;17.03;73.65;100021.75;10279688;28;20039;-70
2023/09/01 03:09:40;;;;;;;3.88;1.73;;;;;;;17.00;74.15;100025.78;10286384;28;20293;-72
2023/09/01 03:14:41;;;;;;;2.83;1.70;;;;;;;17.04;74.45;100012.53;10281327;28;20054;-70
2023/09/01 03:19:43;;;;;;;7.13;2.10;;;;;;;17.02;74.64;100015.50;10282431;28;20101;-71
2023/09/01 03:24:44;;;;;;;4.25;1.63;;;;;;;17.08;74.85;100004.78;10280108;28;20102;-70
2023/09/01 03:29:45;;;;;;;8.18;1.83;;;;;;;17.10;75.02;99999.94;10297379;28;20370;-71
2023/09/01 03:34:48;;;;;;;3.97;2.00;;;;;;;17.05;75.26;100000.63;10278475;28;20066;-72
2023/09/01 03:39:49;;;;;;;3.60;1.73;;;;;;;17.09;75.48;100004.56;10276428;28;20054;-75
2023/09/01 03:44:50;;;;;;;4.30;1.83;;;;;;;17.11;75.62;100004.34;10278634;28;20114;-70
2023/09/01 03:49:52;;;;;;;3.80;1.80;;;;;;;17.12;75.79;100005.97;10281256;28;20110;-70
2023/09/01 03:54:53;;;;;;;5.45;2.22;;;;;;;17.15;75.85;100003.66;10282577;28;20052;-78
2023/09/01 03:59:55;;;;;;;2.80;1.83;;;;;;;17.12;76.01;99998.69;10281613;28;20354;-71
2023/09/01 04:04:57;;;;;;;3.75;1.58;;;;;;;17.15;76.11;100005.53;10282261;28;20062;-77
2023/09/01 04:09:58;;;;;;;5.20;2.53;;;;;;;17.15;76.15;99998.22;10278366;28;20059;-74
2023/09/01 04:15:00;;;;;;;6.40;2.20;;;;;;;17.15;76.41;100003.66;10281211;28;20051;-71
2023/09/01 04:20:01;;;;;;;6.32;2.60;;;;;;;17.14;76.55;99995.72;10283666;28;20292;-76
2023/09/01 04:25:04;;;;;;;4.53;2.13;;;;;;;17.19;76.52;100004.84;10281219;28;20098;-73
2023/09/01 04:30:08;;;;;;;4.53;2.67;;;;;;;17.23;76.64;100007.94;10288521;28;20055;-73
2023/09/01 04:35:11;;;;;;;4.93;3.20;;;;;;;17.27;76.88;100001.00;10285309;28;20082;-72
2023/09/01 04:40:13;;;;;;;7.78;4.47;;;;;;;17.30;76.88;100002.41;10284805;28;20063;-68
2023/09/01 04:45:14;;;;;;;6.72;2.83;;;;;;;17.37;76.80;100001.28;10284182;28;20058;-69
2023/09/01 04:50:16;;;;;;;6.40;2.80;;;;;;;17.44;76.68;99998.47;10282426;28;20061;-69
2023/09/01 04:55:18;;;;;;;5.03;2.95;;;;;;;17.46;76.76;99996.38;10285166;28;20051;-69
2023/09/01 05:00:20;;;;;;;5.22;2.67;;;;;;;17.46;76.98;99999.09;10283390;28;20074;-68
2023/09/01 05:05:22;;;;;;;7.20;2.47;;;;;;;17.49;76.85;99998.59;10284658;28;20110;-71
2023/09/01 05:10:23;;;;;;;4.20;2.35;;;;;;;17.52;76.96;100000.06;10295088;28;20055;-69
2023/09/01 05:15:24;;;;;;;4.80;2.80;;;;;;;17.55;77.20;100005.00;10284144;28;20256;-70
2023/09/01 05:20:26;;;;;;;6.75;4.00;;;;;;;17.62;76.92;100016.63;10280111;28;20046;-70
2023/09/01 05:25:27;;;;;;;5.10;2.65;;;;;;;17.60;77.18;100024.19;10291681;28;20065;-71
2023/09/01 05:30:29;;;;;;;4.47;2.38;;;;;;;17.56;77.18;100042.00;10292560;28;20521;-70
2023/09/01 05:35:30;;;;;;;5.10;2.40;;;;;;;17.61;77.27;100033.97;10275213;28;20053;-71
2023/09/01 05:40:32;;;;;;;5.38;2.40;;;;;;;17.62;77.34;100049.25;10286668;28;20061;-70
2023/09/01 05:45:33;;;;;;;5.15;2.70;;;;;;;17.55;77.42;100046.59;10284166;28;20042;-69
2023/09/01 05:50:34;;;;;;;8.77;3.05;;;;;;;17.52;77.48;100049.78;10282807;28;20043;-71
2023/09/01 05:55:37;;;;;;;5.53;3.28;;;;;;;17.59;77.42;100042.38;10286572;28;20058;-70
2023/09/01 06:00:38;;;;;;;7.97;3.75;;;;;;;17.56;77.37;100034.69;10291882;28;20110;-68
2023/09/01 06:05:40;;;;;;;11.98;5.53;;;;;;;17.58;77.49;100039.91;10282814;28;20354;-69
2023/09/01 06:10:42;;;;;;;9.68;5.38;;;;;;;17.62;77.74;100041.91;10283222;28;20066;-71
2023/09/01 06:15:43;;;;;;;11.43;5.53;;;;;;;17.63;77.74;100032.72;10281011;28;20382;-71
2023/09/01 06:20:45;;;;;;;12.30;5.95;;;;;;;17.67;77.73;100035.78;10284345;28;20043;-69
2023/09/01 06:25:46;;;;;;;15.40;6.75;;;;;;;17.79;77.65;100046.69;10303237;28;20113;-69
2023/09/01 06:30:49;;;;;;;14.93;6.68;;;;;;;17.83;77.61;100046.06;10299210;28;20054;-70
2023/09/01 06:35:51;;;;;;;15.55;6.55;;;;;;;17.89;77.79;100049.75;10299800;28;20058;-68
2023/09/01 06:40:52;;;;;;;13.02;6.65;;;;;;;17.86;77.54;100052.91;10305254;28;20057;-68
2023/09/01 06:45:54;;;;;;;11.70;5.60;;;;;;;17.90;77.70;100051.38;10321000;28;20047;-68
2023/09/01 06:50:58;;;;;;;14.88;6.22;;;;;;;17.92;77.78;100043.81;10299516;28;20066;-67
2023/09/01 06:55:59;;;;;;;15.32;7.10;;;;;;;17.96;77.76;100052.34;10292467;28;20296;-69
2023/09/01 07:01:08;;;;;;;20.15;8.68;;;;;;;17.91;78.13;100044.91;10315376;28;20115;-71
2023/09/01 07:06:10;;;;;;;17.15;8.35;;;;;;;17.84;78.32;100047.69;10314538;28;20043;-68
2023/09/01 07:11:14;;;;;;;17.52;9.27;;;;;;;17.94;78.24;100049.03;10288107;28;20402;-70
2023/09/01 07:16:15;;;;;;;13.60;8.00;;;;;;;18.02;78.16;100054.16;10281954;28;20050;-70
2023/09/01 07:21:17;;;;;;;16.13;8.20;;;;;;;17.92;78.45;100060.13;10282383;28;20051;-69
2023/09/01 07:26:18;;;;;;;18.35;8.48;;;;;;;17.93;78.63;100063.69;10280653;28;20156;-69
2023/09/01 07:31:19;;;;;;;13.88;7.95;;;;;;;17.91;78.66;100073.97;10278153;28;20047;-68
2023/09/01 07:36:21;;;;;;;15.90;8.02;;;;;;;17.81;79.12;100074.50;10282223;28;20145;-69
2023/09/01 07:41:22;;;;;;;10.93;6.65;;;;;;;17.91;79.03;100077.53;10283453;28;20062;-70
2023/09/01 07:46:24;;;;;;;10.98;6.55;;;;;;;17.94;78.98;100078.94;10284059;28;20649;-70
2023/09/01 07:51:25;;;;;;;10.70;6.25;;;;;;;18.00;78.91;100084.28;10282886;28;20065;-70
2023/09/01 07:56:27;;;;;;;8.38;5.00;;;;;;;18.03;78.88;100086.56;10279306;28;20276;-70
2023/09/01 08:01:29;;;;;;;9.95;6.38;;;;;;;18.00;78.85;100089.72;10279487;28;20111;-67
2023/09/01 08:06:30;;;;;;;11.38;7.15;;;;;;;18.09;78.87;100083.94;10288750;28;20031;-66
2023/09/01 08:11:32;;;;;;;14.98;7.97;;;;;;;18.34;78.82;100083.78;10283869;28;20340;-68
2023/09/01 08:16:34;;;;;;;13.52;7.13;;;;;;;18.54;78.68;100087.03;10297371;28;20035;-70
2023/09/01 08:21:35;;;;;;;13.27;6.47;;;;;;;18.31;79.11;100090.53;10306611;28;20093;-69
2023/09/01 08:26:37;;;;;;;12.57;7.55;;;;;;;18.27;79.23;100092.06;10289212;28;20087;-70
2023/09/01 08:31:38;;;;;;;14.32;7.82;;;;;;;18.21;79.73;100103.88;10287934;28;20047;-71
2023/09/01 08:36:40;;;;;;;15.13;8.82;;;;;;;18.39;79.65;100101.06;10291791;28;20136;-69
2023/09/01 08:41:42;;;;;;;11.82;7.95;;;;;;;18.62;79.08;100099.44;10292694;28;20146;-69
2023/09/01 08:46:44;;;;;;;9.68;6.90;;;;;;;18.61;79.44;100111.41;10283260;28;20053;-72
2023/09/01 08:51:48;;;;;;;10.35;6.28;;;;;;;18.62;79.33;100116.63;10306335;28;20109;-68
2023/09/01 08:56:51;;;;;;;10.65;5.80;;;;;;;18.67;79.26;100109.66;10292600;28;20054;-69
2023/09/01 09:01:52;;;;;;;7.03;5.45;;;;;;;18.68;78.94;100109.41;10302349;28;20058;-69
2023/09/01 09:06:53;;;;;;;6.18;4.25;;;;;;;18.73;78.92;100109.53;10283861;28;20051;-72
2023/09/01 09:11:59;;;;;;;7.03;3.97;;;;;;;18.73;78.99;100106.78;10292923;28;20127;-69
2023/09/01 09:17:00;;;;;;;10.82;6.25;;;;;;;18.88;78.75;100106.38;10284807;28;20246;-68
2023/09/01 09:22:06;;;;;;;7.88;5.50;;;;;;;19.01;78.95;100099.84;10300917;28;20392;-70
2023/09/01 09:27:14;;;;;;;8.30;5.50;;;;;;;19.28;78.85;100099.34;10282700;28;21883;-71
2023/09/01 09:32:22;;;;;;;5.82;4.45;;;;;;;19.39;78.72;100103.94;10285888;28;20050;-66
2023/09/01 09:37:23;;;;;;;4.93;4.00;;;;;;;19.53;78.61;100099.88;10288772;28;20116;-66
2023/09/01 09:42:36;;;;;;;6.15;3.28;;;;;;;19.51;78.56;100107.47;10291103;28;20079;-68
2023/09/01 09:47:38;;;;;;;5.18;2.83;;;;;;;19.46;78.67;100110.09;10280712;28;20055;-67
2023/09/01 09:52:47;;;;;;;5.15;3.50;;;;;;;19.31;79.01;100112.47;10283011;28;20055;-69
2023/09/01 09:57:50;;;;;;;6.05;4.10;;;;;;;19.35;78.64;100109.06;10280761;28;20038;-68
2023/09/01 10:02:56;;;;;;;5.90;4.07;;;;;;;19.43;78.44;100096.94;10277291;28;20119;-66
2023/09/01 10:08:02;;;;;;;6.37;4.70;;;;;;;19.52;78.30;100098.22;10285718;28;20055;-68
2023/09/01 10:13:07;;;;;;;8.88;5.68;;;;;;;19.47;78.44;100108.19;10285899;28;20070;-69
2023/09/01 10:18:09;;;;;;;9.70;6.95;;;;;;;19.47;78.47;100110.91;10287973;28;20110;-69
2023/09/01 10:23:12;;;;;;;7.65;5.97;;;;;;;19.66;78.06;100104.22;10284094;28;20347;-68
2023/09/01 10:28:14;;;;;;;8.05;5.78;;;;;;;19.59;78.09;100098.91;10280802;28;20535;-68
2023/09/01 10:33:26;;;;;;;9.73;6.53;;;;;;;19.61;78.67;100096.78;10285932;28;20043;-69
2023/09/01 10:38:33;;;;;;;10.93;6.63;;;;;;;19.55;79.29;100095.03;10285548;28;20101;-68
2023/09/01 10:43:35;;;;;;;11.13;7.53;;;;;;;19.95;78.71;100094.19;10279629;28;20051;-70
2023/09/01 10:48:50;;;;;;;7.20;5.47;;;;;;;20.07;78.96;100085.94;10283743;28;20271;-68
2023/09/01 10:53:52;;;;;;;8.45;5.70;;;;;;;20.25;78.46;100078.59;10282590;28;20058;-68
2023/09/01 10:58:56;;;;;;;7.15;5.40;;;;;;;20.29;78.90;100069.66;10284594;28;20059;-70
2023/09/01 11:04:14;;;;;;;6.65;5.18;;;;;;;20.28;79.16;100061.72;10285952;28;20358;-69
2023/09/01 11:09:16;;;;;;;9.57;5.32;;;;;;;20.51;78.46;100063.47;10288588;28;20247;-67
2023/09/01 11:14:20;;;;;;;10.45;5.93;;;;;;;20.75;78.47;100058.69;10280962;28;21556;-70
2023/09/01 11:19:21;;;;;;;10.30;7.13;;;;;;;20.79;78.79;100046.16;10284270;28;20047;-70
2023/09/01 11:24:23;;;;;;;14.73;8.93;;;;;;;21.02;78.88;100045.13;10278403;28;20058;-70
2023/09/01 11:29:24;;;;;;;13.40;8.48;;;;;;;21.28;77.99;100034.53;10281786;28;20114;-69
2023/09/01 11:34:36;;;;;;;13.38;8.07;;;;;;;21.30;77.90;100040.56;10287268;28;20098;-69
2023/09/01 11:39:38;;;;;;;13.68;8.15;;;;;;;21.33;77.70;100046.34;10292749;28;20076;-68
2023/09/01 11:44:39;;;;;;;16.85;10.38;;;;;;;21.05;79.01;100030.13;10290697;28;20055;-69
2023/09/01 11:49:42;;;;;;;15.85;9.35;;;;;;;20.92;78.68;100029.41;10290131;28;20114;-69
2023/09/01 11:54:43;;;;;;;19.75;10.95;;;;;;;20.62;79.22;100034.44;10291341;28;20124;-69
2023/09/01 11:59:48;;;;;;;7.18;4.28;;;;;;;20.14;80.53;100031.19;10288669;28;20043;-69
2023/09/01 12:04:51;;;;;;;13.57;6.88;;;;;;;20.28;80.47;100018.03;10293168;28;20066;-68
2023/09/01 12:09:53;;;;;;;5.90;4.30;;;;;;;20.29;81.24;100023.25;10289222;28;20306;-69
2023/09/01 12:15:03;;;;;;;5.65;3.17;;;;;;;20.60;81.17;100027.31;10291772;28;20266;-69
2023/09/01 12:20:06;;;;;;;3.33;2.20;;;;;;;20.78;81.20;100009.00;10292894;28;20050;-70
2023/09/01 12:25:08;;;;;;;2.10;1.55;;;;;;;20.75;81.95;100006.78;10291096;28;20047;-67
2023/09/01 12:30:10;;;;;;;4.20;2.35;;;;;;;20.97;81.35;100006.78;10286662;28;20076;-71
2023/09/01 12:35:11;;;;;;;2.85;1.38;;;;;;;21.12;81.42;100007.00;10285943;28;20065;-68
2023/09/01 12:40:13;;;;;;;2.58;1.60;;;;;;;21.34;81.21;99987.84;10291436;28;20043;-69
2023/09/01 12:45:14;;;;;;;2.58;0.80;;;;;;;21.52;81.33;99999.53;10306332;28;20118;-69
2023/09/01 12:50:18;;;;;;;1.70;0.80;;;;;;;21.76;80.64;99995.44;10293532;28;20054;-69
2023/09/01 12:55:19;;;;;;;1.00;0.70;;;;;;;21.89;80.41;100005.13;10287425;28;20114;-69
2023/09/01 13:00:22;;;;;;;0.85;0.40;;;;;;;22.08;79.55;99991.06;10291389;28;20042;-68
2023/09/01 13:05:24;;;;;;;1.58;0.30;;;;;;;22.08;79.46;99996.53;10297290;28;20074;-67
2023/09/01 13:10:27;;;;;;;1.58;1.23;;;;;;;22.16;78.55;100012.47;10291875;28;20110;-66
2023/09/01 13:15:29;;;;;;;0.90;0.43;;;;;;;22.27;77.70;100016.97;10282949;28;20053;-66
2023/09/01 13:20:31;;;;;;;1.20;0.30;;;;;;;22.33;77.06;100012.34;10283434;28;20078;-66
2023/09/01 13:25:32;;;;;;;0.30;0.20;;;;;;;22.77;76.35;100023.09;10286312;28;20074;-66
2023/09/01 13:30:36;;;;;;;0.60;0.40;;;;;;;23.24;75.00;100024.16;10293015;28;20109;-69
2023/09/01 13:35:39;;;;;;;0.77;0.30;;;;;;;23.49;73.90;100029.72;10289130;28;20047;-68
2023/09/01 13:40:40;;;;;;;0.47;0.28;;;;;;;23.55;72.98;100036.06;10297388;28;20051;-68
2023/09/01 13:45:42;;;;;;;1.33;0.30;;;;;;;23.34;71.62;100036.00;10286757;28;20066;-70
2023/09/01 13:50:44;;;;;;;0.55;0.30;;;;;;;23.19;71.32;100027.72;10281881;28;20043;-68
2023/09/01 13:55:45;;;;;;;1.13;0.20;;;;;;;23.10;70.47;100043.00;10280120;28;20122;-70
2023/09/01 14:00:47;;;;;;;0.40;0.28;;;;;;;23.20;70.99;100029.34;10296916;28;20529;-69
2023/09/01 14:05:48;;;;;;;1.50;0.75;;;;;;;23.16;70.44;100045.53;10290434;28;20343;-68
2023/09/01 14:10:54;;;;;;;0.40;0.20;;;;;;;23.04;70.26;100049.56;10283858;28;20229;-68
2023/09/01 14:15:57;;;;;;;0.38;0.10;;;;;;;22.93;69.83;100046.75;10287820;28;20114;-68
2023/09/01 14:20:59;;;;;;;0.40;0.10;;;;;;;22.91;69.55;100039.88;10281693;28;20047;-67
2023/09/01 14:26:00;;;;;;;0.43;0.20;;;;;;;23.11;69.22;100037.25;10289941;28;20058;-68
2023/09/01 14:31:01;;;;;;;2.40;0.20;;;;;;;23.32;68.79;100037.34;10283077;28;20371;-67
2023/09/01 14:36:03;;;;;;;0.30;0.10;;;;;;;23.50;68.15;100049.75;10284526;28;20047;-67
2023/09/01 14:41:04;;;;;;;0.45;0.20;;;;;;;23.67;67.16;100055.03;10285837;28;20066;-68
2023/09/01 14:46:06;;;;;;;1.25;0.20;;;;;;;24.40;65.93;100040.31;10280351;28;20115;-69
2023/09/01 14:51:08;;;;;;;2.08;0.20;;;;;;;24.95;64.95;100046.84;10278796;28;20062;-68
2023/09/01 14:56:12;;;;;;;1.23;0.20;;;;;;;24.73;64.78;100048.00;10285126;28;20109;-72
2023/09/01 15:01:13;;;;;;;0.65;0.20;;;;;;;24.55;65.87;100059.56;10281635;28;20079;-69
2023/09/01 15:06:14;;;;;;;1.40;0.20;;;;;;;24.14;65.48;100060.34;10282512;28;20216;-69
2023/09/01 15:11:16;;;;;;;1.10;0.20;;;;;;;23.94;64.94;100077.63;10284129;28;20124;-68
2023/09/01 15:16:18;;;;;;;1.38;0.20;;;;;;;23.79;64.90;100072.09;10275729;28;20043;-68
2023/09/01 15:21:19;;;;;;;0.60;0.30;;;;;;;23.54;65.26;100068.16;10286516;28;20110;-69
2023/09/01 15:26:21;;;;;;;1.27;0.20;;;;;;;23.35;65.32;100067.00;10290106;28;20062;-67
2023/09/01 15:31:22;;;;;;;0.20;0.15;;;;;;;23.36;65.01;100060.41;10283153;28;20050;-69
2023/09/01 15:36:26;;;;;;;0.20;0.10;;;;;;;23.43;64.67;100062.91;10278653;28;20090;-67
2023/09/01 15:41:28;;;;;;;0.28;0.20;;;;;;;23.68;64.26;100062.19;10278415;28;20074;-68
2023/09/01 15:46:30;;;;;;;0.40;0.20;;;;;;;23.80;64.13;100051.81;10281390;28;20161;-68
2023/09/01 15:51:32;;;;;;;1.08;0.10;;;;;;;24.44;62.76;100057.91;10272576;28;20051;-69
2023/09/01 15:56:33;;;;;;;0.73;0.13;;;;;;;25.02;62.05;100066.66;10281511;28;20268;-67
2023/09/01 16:01:35;;;;;;;1.35;0.10;;;;;;;25.29;61.43;100068.22;10277964;28;20219;-68
2023/09/01 16:06:36;;;;;;;1.65;0.10;;;;;;;25.59;60.56;100069.19;10284774;28;20054;-69
2023/09/01 16:11:39;;;;;;;1.25;0.10;;;;;;;25.98;59.65;100065.69;10282956;28;20039;-69
2023/09/01 16:16:41;;;;;;;1.38;0.10;;;;;;;26.48;58.68;100060.88;10280832;28;20051;-69
2023/09/01 16:21:42;;;;;;;0.28;0.10;;;;;;;26.74;57.95;100064.28;10287354;28;20399;-69
2023/09/01 16:26:48;;;;;;;0.65;0.13;;;;;;;26.79;57.99;100052.38;10288153;28;20035;-70
2023/09/01 16:31:49;;;;;;;0.93;0.20;;;;;;;26.67;57.70;100050.00;10283940;28;20219;-70
2023/09/01 16:36:51;;;;;;;1.05;0.10;;;;;;;26.82;57.15;100057.31;10289840;28;20337;-69
2023/09/01 16:41:52;;;;;;;0.17;0.10;;;;;;;26.82;57.14;100060.06;10284317;28;20377;-70
2023/09/01 16:46:54;;;;;;;0.05;0.00;;;;;;;26.58;57.00;100059.97;10289138;28;20463;-69
2023/09/01 16:51:56;;;;;;;0.20;0.10;;;;;;;26.09;57.44;100072.78;10285480;28;20050;-69
2023/09/01 16:56:57;;;;;;;2.88;0.10;;;;;;;25.99;57.94;100070.09;10289912;28;20049;-69
2023/09/01 17:01:58;;;;;;;0.65;0.10;;;;;;;25.71;58.55;100080.69;10290779;28;20118;-69
2023/09/01 17:07:00;;;;;;;0.70;0.10;;;;;;;25.56;57.89;100083.53;10287708;28;20047;-68
2023/09/01 17:12:02;;;;;;;1.27;0.20;;;;;;;25.22;58.79;100081.47;10289209;28;20055;-68
2023/09/01 17:17:03;;;;;;;1.13;0.25;;;;;;;24.82;59.22;100074.91;10284912;28;20059;-68
2023/09/01 17:22:04;;;;;;;0.55;0.30;;;;;;;24.58;60.12;100082.94;10285932;28;20050;-68
2023/09/01 17:27:06;;;;;;;0.28;0.10;;;;;;;24.35;60.53;100087.84;10286835;28;20043;-68
2023/09/01 17:32:07;;;;;;;0.20;0.10;;;;;;;24.06;60.91;100091.09;10285095;28;20057;-69
2023/09/01 17:37:09;;;;;;;0.35;0.10;;;;;;;23.89;61.19;100096.81;10290831;28;20050;-71
2023/09/01 17:42:10;;;;;;;1.42;0.10;;;;;;;23.70;61.83;100101.97;10285724;28;20314;-68
2023/09/01 17:47:11;;;;;;;0.75;0.10;;;;;;;23.56;61.96;100109.88;10284255;28;20048;-66
2023/09/01 17:52:13;;;;;;;1.48;0.20;;;;;;;23.50;62.25;100113.72;10292589;28;20116;-68
2023/09/01 17:57:14;;;;;;;1.55;0.10;;;;;;;23.48;62.38;100115.91;10287047;28;20296;-69
2023/09/01 18:02:16;;;;;;;0.20;0.10;;;;;;;23.36;62.62;100112.53;10284006;28;20618;-68
2023/09/01 18:07:18;;;;;;;1.13;0.47;;;;;;;23.27;62.66;100108.66;10285310;28;20062;-67
2023/09/01 18:12:23;;;;;;;0.70;0.10;;;;;;;23.22;63.07;100116.84;10283704;28;20039;-69
2023/09/01 18:17:24;;;;;;;3.10;0.10;;;;;;;23.09;63.11;100124.47;10284237;28;20058;-68
2023/09/01 18:22:26;;;;;;;0.10;0.03;;;;;;;22.76;63.64;100156.53;10278030;28;20089;-69
2023/09/01 18:27:30;;;;;;;0.10;0.00;;;;;;;22.03;65.02;100175.22;10284814;28;20350;-70
2023/09/01 18:32:32;;;;;;;0.35;0.05;;;;;;;20.44;70.30;100189.25;10284024;28;20122;-70
2023/09/01 18:37:36;;;;;;;0.20;0.00;;;;;;;19.46;73.34;100186.44;10287938;28;20047;-69
2023/09/01 18:42:37;;;;;;;1.10;0.00;;;;;;;18.95;74.87;100193.41;10284895;28;20212;-69
2023/09/01 18:47:39;;;;;;;1.95;0.00;;;;;;;18.74;75.03;100201.06;10282301;28;20054;-69
2023/09/01 18:52:40;;;;;;;0.15;0.03;;;;;;;18.63;75.39;100205.41;10287756;28;20066;-70
2023/09/01 18:57:42;;;;;;;1.48;0.10;;;;;;;18.56;75.73;100210.13;10295546;28;20383;-70
2023/09/01 19:02:48;;;;;;;1.75;0.10;;;;;;;18.55;75.74;100223.97;10278450;28;20047;-68
2023/09/01 19:07:49;;;;;;;2.80;0.10;;;;;;;18.58;75.64;100234.38;10289156;28;20097;-69
2023/09/01 19:12:52;;;;;;;0.25;0.10;;;;;;;18.67;75.41;100230.28;10294922;28;20069;-69
2023/09/01 19:17:55;;;;;;;0.47;0.22;;;;;;;18.74;75.08;100228.28;10277915;28;20073;-70
2023/09/01 19:23:11;;;;;;;0.57;0.22;;;;;;;18.85;74.90;100240.28;10287481;28;20288;-70
2023/09/01 19:28:16;;;;;;;2.38;0.35;;;;;;;18.90;74.95;100229.53;10291612;28;20039;-69
2023/09/01 19:33:39;;;;;;;0.50;0.20;;;;;;;19.12;74.48;100245.34;10282133;28;20355;-73
2023/09/01 19:38:46;;;;;;;0.32;0.20;;;;;;;19.15;74.50;100251.13;10282889;28;20042;-70
2023/09/01 19:43:54;;;;;;;1.10;0.30;;;;;;;19.27;74.46;100262.03;10279249;28;20073;-70
2023/09/01 19:48:56;;;;;;;1.80;0.30;;;;;;;19.37;74.18;100265.03;10283954;28;20133;-71
2023/09/01 19:53:59;;;;;;;1.42;0.30;;;;;;;19.41;74.54;100266.22;10281371;28;20047;-70
2023/09/01 19:59:04;;;;;;;0.20;0.20;;;;;;;19.45;74.70;100265.72;10290946;28;20228;-70
2023/09/01 20:04:06;;;;;;;2.25;0.22;;;;;;;19.47;74.45;100278.06;10290912;28;20118;-70
2023/09/01 20:09:15;;;;;;;0.30;0.30;;;;;;;19.45;74.70;100273.91;10293510;28;20085;-69
2023/09/01 20:14:17;;;;;;;0.88;0.30;;;;;;;19.39;74.96;100283.84;10289738;28;20347;-70
2023/09/01 20:19:27;;;;;;;0.40;0.22;;;;;;;19.46;74.87;100283.75;10289232;28;20047;-69
2023/09/01 20:24:29;;;;;;;1.20;0.20;;;;;;;19.51;74.64;100292.03;10287227;28;20058;-69
2023/09/01 20:29:30;;;;;;;0.32;0.30;;;;;;;19.40;74.98;100301.88;10289112;28;20110;-69
2023/09/01 20:34:32;;;;;;;0.38;0.20;;;;;;;19.28;75.27;100303.75;10292075;28;20322;-71
2023/09/01 20:39:34;;;;;;;2.25;0.40;;;;;;;19.29;75.18;100317.13;10292552;28;20082;-70
2023/09/01 20:44:40;;;;;;;0.45;0.28;;;;;;;19.25;75.16;100320.56;10288829;28;20381;-69
2023/09/01 20:49:41;;;;;;;0.38;0.20;;;;;;;19.17;75.11;100325.31;10290867;28;20043;-70
2023/09/01 20:54:43;;;;;;;0.70;0.28;;;;;;;19.22;74.66;100336.34;10288204;28;20043;-70
2023/09/01 20:59:45;;;;;;;0.85;0.30;;;;;;;19.08;74.78;100334.88;10286583;28;20054;-71
2023/09/01 21:04:47;;;;;;;1.38;0.30;;;;;;;19.01;74.84;100342.31;10287648;28;20137;-70
2023/09/01 21:09:48;;;;;;;2.50;0.30;;;;;;;19.06;74.55;100347.09;10285102;28;20070;-69
2023/09/01 21:14:50;;;;;;;1.50;0.70;;;;;;;19.12;74.12;100359.78;10288610;28;20055;-70
2023/09/01 21:19:55;;;;;;;3.45;0.60;;;;;;;19.10;74.15;100360.00;10291086;28;20066;-69
2023/09/01 21:24:57;;;;;;;1.23;0.60;;;;;;;19.06;74.23;100366.97;10284836;28;20047;-66
2023/09/01 21:30:16;;;;;;;0.60;0.43;;;;;;;18.94;74.22;100368.84;10287836;28;20053;-69
2023/09/01 21:35:18;;;;;;;0.88;0.32;;;;;;;18.71;74.83;100370.34;10283572;28;20097;-68
2023/09/01 21:40:19;;;;;;;0.68;0.50;;;;;;;18.68;74.84;100376.28;10281255;28;20139;-68
2023/09/01 21:45:23;;;;;;;1.85;0.20;;;;;;;18.64;74.97;100375.03;10288381;28;20111;-69
2023/09/01 21:50:24;;;;;;;2.00;0.20;;;;;;;18.70;74.73;100386.91;10285399;28;20055;-70
2023/09/01 21:55:26;;;;;;;0.70;0.40;;;;;;;18.74;74.25;100390.84;10290475;28;20123;-68
2023/09/01 22:00:28;;;;;;;0.60;0.20;;;;;;;18.63;74.48;100384.28;10281789;28;20054;-69
2023/09/01 22:05:29;;;;;;;1.05;0.28;;;;;;;18.54;74.70;100394.66;10280065;28;20047;-70
2023/09/01 22:10:30;;;;;;;0.20;0.20;;;;;;;18.45;74.80;100392.47;10290244;28;20299;-69
2023/09/01 22:15:33;;;;;;;0.95;0.30;;;;;;;18.36;74.92;100405.53;10284345;28;20117;-70
2023/09/01 22:20:34;;;;;;;2.00;0.20;;;;;;;18.35;74.90;100409.31;10282229;28;20061;-70
2023/09/01 22:25:35;;;;;;;1.10;0.20;;;;;;;18.34;75.04;100416.63;10284798;28;20114;-70
2023/09/01 22:30:37;;;;;;;0.40;0.17;;;;;;;18.26;74.97;100418.81;10280675;28;20101;-68
2023/09/01 22:35:38;;;;;;;1.38;0.20;;;;;;;18.23;75.04;100425.56;10292442;28;20107;-69
2023/09/01 22:40:39;;;;;;;0.93;0.20;;;;;;;18.31;74.68;100438.03;10282321;28;20059;-69
2023/09/01 22:45:42;;;;;;;3.33;0.40;;;;;;;18.27;74.32;100442.28;10282758;28;20062;-68
2023/09/01 22:50:43;;;;;;;0.75;0.20;;;;;;;18.26;74.68;100446.03;10276891;28;20043;-70
2023/09/01 22:55:45;;;;;;;0.20;0.13;;;;;;;18.17;74.78;100446.34;10279704;28;20335;-70
2023/09/01 23:00:47;;;;;;;1.17;0.30;;;;;;;18.12;74.88;100443.44;10283474;28;20073;-69
2023/09/01 23:05:48;;;;;;;0.20;0.10;;;;;;;18.10;74.77;100444.72;10280458;28;20046;-69
2023/09/01 23:10:50;;;;;;;0.10;0.10;;;;;;;18.10;74.92;100439.28;10281079;28;20114;-69